KPMD

Palmdale Usaf Plant 42 Airport

Palmdale, California, USA
KPMD 251752Z 2518/2618 22010KT P6SM SCT200 FM252300 24015G25KT P6SM SKC FM260400 23008KT P6SM SKC FM261700 24015G22KT P6SM SKC
Issued Valid From Valid To
Apr-25 @ 17:52 UTC
(13 minutes ago)
Apr-25 @ 18:00 UTC
(5 minutes ago)
Apr-26 @ 18:00 UTC
(in 24 hours)
Apr-25 @ 18:00 to Apr-25 @ 23:00
KPMD 251752Z 2518/2618 22010KT P6SM SCT200
Wind Visibility Clouds
220° at 10 knots Greater than 6 miles
  • Scattered at 20,000' AGL
From Apr-25 @ 23:00 to Apr-26 @ 04:00
FM252300 24015G25KT P6SM SKC
Wind Visibility Clouds
240° at 15 knots
 Gusting to 25 knots
Greater than 6 miles
  • Clear skies
From Apr-26 @ 04:00 to Apr-26 @ 17:00
FM260400 23008KT P6SM SKC
Wind Visibility Clouds
230° at 8 knots Greater than 6 miles
  • Clear skies
From Apr-26 @ 17:00 to Apr-26 @ 18:00
FM261700 24015G22KT P6SM SKC
Wind Visibility Clouds
240° at 15 knots
 Gusting to 22 knots
Greater than 6 miles
  • Clear skies
KPMD 251752Z 2518/2618 22010KT P6SM SCT200 FM252300 24015G25KT P6SM SKC FM260400 23008KT P6SM SKC FM261700 24015G22KT P6SM SKC
Issued Apr-25 @ 17:52 UTC
(13 minutes ago)
Valid From Apr-25 @ 18:00 UTC
(5 minutes ago)
Valid To Apr-26 @ 18:00 UTC
(in 24 hours)
Apr-25 @ 18:00 - Apr-25 @ 23:00
Wind Visibility
220° at 10 knots Greater than 6 miles
Clouds
  • Scattered at 20,000' AGL
From Apr-25 @ 23:00 - Apr-26 @ 04:00
Wind Visibility
240° at 15 knots
 Gusting to 25 knots
Greater than 6 miles
Clouds
  • Clear skies
From Apr-26 @ 04:00 - Apr-26 @ 17:00
Wind Visibility
230° at 8 knots Greater than 6 miles
Clouds
  • Clear skies
From Apr-26 @ 17:00 - Apr-26 @ 18:00
Wind Visibility
240° at 15 knots
 Gusting to 22 knots
Greater than 6 miles
Clouds
  • Clear skies